Terminal Aerodrome Forecast
Issued by NWS

Home | Current Version | Previous Version | Text Only | Print | Product List | Glossary On
Versions: 1 2 3 4 5 6 7 8 9 10 11 12 13 14 15 16 17 18 19 20 21 22 23 24 25 26
000
FTUS43 KDLH 191300 AAA
TAFBRD
TAF AMD
KBRD 191312Z 1913/2012 30012G22KT P6SM VCSH SCT026 OVC050
      TEMPO 1913/1914 30012KT 3SM -SN BR SCT018 BKN026
     FM191600 31016G26KT P6SM BKN025 OVC050
     FM200100 30012KT P6SM BKN035
     FM200900 29010KT P6SM SKC=

USA.gov is the U.S. government's official web portal to all federal, state and local government web resources and services.